sensor_id;sensor_type;location;lat;lon;timestamp;pressure;altitude;pressure_sealevel;temperature;humidity
7930;BME280;4010;42.698;23.124;2023-02-05T00:00:36;118349.16;;;-140.64;86.34
7930;BME280;4010;42.698;23.124;2023-02-05T00:03:03;118349.16;;;-140.64;86.50
7930;BME280;4010;42.698;23.124;2023-02-05T00:05:30;118349.16;;;-140.64;86.31
7930;BME280;4010;42.698;23.124;2023-02-05T00:07:58;118349.16;;;-140.64;86.45
7930;BME280;4010;42.698;23.124;2023-02-05T00:10:24;118349.16;;;-140.64;85.58
7930;BME280;4010;42.698;23.124;2023-02-05T00:12:51;118349.16;;;-140.64;86.33
7930;BME280;4010;42.698;23.124;2023-02-05T00:15:18;118349.16;;;-140.64;85.85
7930;BME280;4010;42.698;23.124;2023-02-05T00:17:45;118349.16;;;-140.64;86.55
7930;BME280;4010;42.698;23.124;2023-02-05T00:20:11;118349.16;;;-140.64;86.12
7930;BME280;4010;42.698;23.124;2023-02-05T00:22:38;118349.16;;;-140.64;85.81
7930;BME280;4010;42.698;23.124;2023-02-05T00:25:06;118349.16;;;-140.64;86.26
7930;BME280;4010;42.698;23.124;2023-02-05T00:27:33;118349.16;;;-140.64;86.28
7930;BME280;4010;42.698;23.124;2023-02-05T00:30:00;118349.16;;;-140.64;86.54
7930;BME280;4010;42.698;23.124;2023-02-05T00:32:26;118349.16;;;-140.64;86.78
7930;BME280;4010;42.698;23.124;2023-02-05T00:34:53;118349.16;;;-140.64;87.55
7930;BME280;4010;42.698;23.124;2023-02-05T00:37:20;118349.16;;;-140.64;86.73
7930;BME280;4010;42.698;23.124;2023-02-05T00:39:47;118349.16;;;-140.64;86.59
7930;BME280;4010;42.698;23.124;2023-02-05T00:42:15;118349.16;;;-140.64;86.40
7930;BME280;4010;42.698;23.124;2023-02-05T00:44:42;118349.16;;;-140.64;86.14
7930;BME280;4010;42.698;23.124;2023-02-05T00:47:08;118349.16;;;-140.64;86.24
7930;BME280;4010;42.698;23.124;2023-02-05T00:49:35;118349.16;;;-140.64;86.33
7930;BME280;4010;42.698;23.124;2023-02-05T00:52:02;118349.16;;;-140.64;86.04
7930;BME280;4010;42.698;23.124;2023-02-05T00:54:29;118349.16;;;-140.64;86.17
7930;BME280;4010;42.698;23.124;2023-02-05T00:56:56;118349.16;;;-140.64;86.28
7930;BME280;4010;42.698;23.124;2023-02-05T01:02:45;118349.16;;;-140.64;86.29
7930;BME280;4010;42.698;23.124;2023-02-05T01:05:12;118349.16;;;-140.64;86.19
7930;BME280;4010;42.698;23.124;2023-02-05T01:07:39;118349.16;;;-140.64;86.73
7930;BME280;4010;42.698;23.124;2023-02-05T01:10:07;118349.16;;;-140.64;85.71
7930;BME280;4010;42.698;23.124;2023-02-05T01:12:34;118349.16;;;-140.64;85.71
7930;BME280;4010;42.698;23.124;2023-02-05T01:15:01;118349.16;;;-140.64;86.75
7930;BME280;4010;42.698;23.124;2023-02-05T01:17:28;118349.16;;;-140.64;86.86
7930;BME280;4010;42.698;23.124;2023-02-05T01:19:56;118349.16;;;-140.64;87.45
7930;BME280;4010;42.698;23.124;2023-02-05T01:22:23;118349.16;;;-140.64;87.44
7930;BME280;4010;42.698;23.124;2023-02-05T01:24:50;118349.16;;;-140.64;87.35
7930;BME280;4010;42.698;23.124;2023-02-05T01:27:17;118349.16;;;-140.64;87.78
7930;BME280;4010;42.698;23.124;2023-02-05T01:29:43;118349.16;;;-140.64;88.14
7930;BME280;4010;42.698;23.124;2023-02-05T01:32:10;118349.16;;;-140.64;89.10
7930;BME280;4010;42.698;23.124;2023-02-05T01:34:37;118349.16;;;-140.64;89.59
7930;BME280;4010;42.698;23.124;2023-02-05T01:37:05;118349.16;;;-140.64;89.68
7930;BME280;4010;42.698;23.124;2023-02-05T01:39:31;118349.16;;;-140.64;90.74
7930;BME280;4010;42.698;23.124;2023-02-05T01:41:58;118349.16;;;-140.64;90.44
7930;BME280;4010;42.698;23.124;2023-02-05T01:44:25;118349.16;;;-140.64;90.67
7930;BME280;4010;42.698;23.124;2023-02-05T01:46:54;118349.16;;;-140.64;90.50
7930;BME280;4010;42.698;23.124;2023-02-05T01:49:24;118349.16;;;-140.64;89.73
7930;BME280;4010;42.698;23.124;2023-02-05T01:51:52;118349.16;;;-140.64;88.82
7930;BME280;4010;42.698;23.124;2023-02-05T01:54:25;118349.16;;;-140.64;88.84
7930;BME280;4010;42.698;23.124;2023-02-05T01:56:55;118349.16;;;-140.64;88.29
7930;BME280;4010;42.698;23.124;2023-02-05T01:59:25;118349.16;;;-140.64;87.45
7930;BME280;4010;42.698;23.124;2023-02-05T02:01:53;118349.16;;;-140.64;87.23
7930;BME280;4010;42.698;23.124;2023-02-05T02:04:31;118349.16;;;-140.64;85.82
7930;BME280;4010;42.698;23.124;2023-02-05T02:07:02;118349.16;;;-140.64;85.42
7930;BME280;4010;42.698;23.124;2023-02-05T02:09:30;118349.16;;;-140.64;85.16
7930;BME280;4010;42.698;23.124;2023-02-05T02:11:58;118349.16;;;-140.64;84.65
7930;BME280;4010;42.698;23.124;2023-02-05T02:14:25;118349.16;;;-140.64;84.95
7930;BME280;4010;42.698;23.124;2023-02-05T02:16:54;118349.16;;;-140.64;84.39
7930;BME280;4010;42.698;23.124;2023-02-05T02:19:31;118349.16;;;-140.64;84.87
7930;BME280;4010;42.698;23.124;2023-02-05T02:22:16;118349.16;;;-140.64;84.72
7930;BME280;4010;42.698;23.124;2023-02-05T02:25:02;118349.16;;;-140.64;85.33
7930;BME280;4010;42.698;23.124;2023-02-05T02:27:36;118349.16;;;-140.64;85.50
7930;BME280;4010;42.698;23.124;2023-02-05T02:30:08;118349.16;;;-140.64;85.53
7930;BME280;4010;42.698;23.124;2023-02-05T02:32:38;118349.16;;;-140.64;85.73
7930;BME280;4010;42.698;23.124;2023-02-05T02:35:10;118349.16;;;-140.64;86.49
7930;BME280;4010;42.698;23.124;2023-02-05T02:37:46;118349.16;;;-140.64;86.32
7930;BME280;4010;42.698;23.124;2023-02-05T02:40:18;118349.16;;;-140.64;86.59
7930;BME280;4010;42.698;23.124;2023-02-05T02:42:51;118349.16;;;-140.64;86.66
7930;BME280;4010;42.698;23.124;2023-02-05T02:45:21;118349.16;;;-140.64;87.32
7930;BME280;4010;42.698;23.124;2023-02-05T02:47:54;118349.16;;;-140.64;87.48
7930;BME280;4010;42.698;23.124;2023-02-05T02:50:26;118349.16;;;-140.64;88.09
7930;BME280;4010;42.698;23.124;2023-02-05T02:52:59;118349.16;;;-140.64;88.46
7930;BME280;4010;42.698;23.124;2023-02-05T02:55:29;118349.16;;;-140.64;89.10
7930;BME280;4010;42.698;23.124;2023-02-05T02:58:00;118349.16;;;-140.64;89.14
7930;BME280;4010;42.698;23.124;2023-02-05T03:00:28;118349.16;;;-140.64;90.11
7930;BME280;4010;42.698;23.124;2023-02-05T03:03:00;118349.16;;;-140.64;90.74
7930;BME280;4010;42.698;23.124;2023-02-05T03:05:28;118349.16;;;-140.64;91.58
7930;BME280;4010;42.698;23.124;2023-02-05T03:07:59;118349.16;;;-140.64;91.87
7930;BME280;4010;42.698;23.124;2023-02-05T03:10:35;118349.16;;;-140.64;91.77
7930;BME280;4010;42.698;23.124;2023-02-05T03:13:08;118349.16;;;-140.64;92.17
7930;BME280;4010;42.698;23.124;2023-02-05T03:15:35;118349.16;;;-140.64;92.65
7930;BME280;4010;42.698;23.124;2023-02-05T03:18:02;118349.16;;;-140.64;92.62
7930;BME280;4010;42.698;23.124;2023-02-05T03:20:33;118349.16;;;-140.64;92.04
7930;BME280;4010;42.698;23.124;2023-02-05T03:23:02;118349.16;;;-140.64;91.35
7930;BME280;4010;42.698;23.124;2023-02-05T03:25:29;118349.16;;;-140.64;91.02
7930;BME280;4010;42.698;23.124;2023-02-05T03:27:56;118349.16;;;-140.64;91.58
7930;BME280;4010;42.698;23.124;2023-02-05T03:30:29;118349.16;;;-140.64;91.09
7930;BME280;4010;42.698;23.124;2023-02-05T03:33:06;118349.16;;;-140.64;91.73
7930;BME280;4010;42.698;23.124;2023-02-05T03:35:38;118349.16;;;-140.64;90.81
7930;BME280;4010;42.698;23.124;2023-02-05T03:38:17;118349.16;;;-140.64;90.65
7930;BME280;4010;42.698;23.124;2023-02-05T03:40:51;118349.16;;;-140.64;90.63
7930;BME280;4010;42.698;23.124;2023-02-05T03:43:30;118349.16;;;-140.64;90.34
7930;BME280;4010;42.698;23.124;2023-02-05T03:46:05;118349.16;;;-140.64;90.30
7930;BME280;4010;42.698;23.124;2023-02-05T03:48:44;118349.16;;;-140.64;89.97
7930;BME280;4010;42.698;23.124;2023-02-05T03:51:23;118349.16;;;-140.64;90.27
7930;BME280;4010;42.698;23.124;2023-02-05T03:54:01;118349.16;;;-140.64;90.23
7930;BME280;4010;42.698;23.124;2023-02-05T03:56:36;118349.16;;;-140.64;90.20
7930;BME280;4010;42.698;23.124;2023-02-05T03:59:05;118349.16;;;-140.64;90.00
7930;BME280;4010;42.698;23.124;2023-02-05T04:01:34;118349.16;;;-140.64;89.71
7930;BME280;4010;42.698;23.124;2023-02-05T04:04:01;118349.16;;;-140.64;89.24
7930;BME280;4010;42.698;23.124;2023-02-05T04:06:28;118349.16;;;-140.64;89.21
7930;BME280;4010;42.698;23.124;2023-02-05T04:08:55;118349.16;;;-140.64;88.34
7930;BME280;4010;42.698;23.124;2023-02-05T04:11:21;118349.16;;;-140.64;88.47
7930;BME280;4010;42.698;23.124;2023-02-05T04:13:48;118349.16;;;-140.64;89.13
7930;BME280;4010;42.698;23.124;2023-02-05T04:16:15;118349.16;;;-140.64;88.21
7930;BME280;4010;42.698;23.124;2023-02-05T04:18:43;118349.16;;;-140.64;88.41
7930;BME280;4010;42.698;23.124;2023-02-05T04:21:09;118349.16;;;-140.64;88.02
7930;BME280;4010;42.698;23.124;2023-02-05T04:23:36;118349.16;;;-140.64;87.79
7930;BME280;4010;42.698;23.124;2023-02-05T04:26:03;118349.16;;;-140.64;88.02
7930;BME280;4010;42.698;23.124;2023-02-05T04:28:29;118349.16;;;-140.64;88.09
7930;BME280;4010;42.698;23.124;2023-02-05T04:30:56;118349.16;;;-140.64;88.31
7930;BME280;4010;42.698;23.124;2023-02-05T04:33:23;118349.16;;;-140.64;88.00
7930;BME280;4010;42.698;23.124;2023-02-05T04:35:51;118349.16;;;-140.64;88.23
7930;BME280;4010;42.698;23.124;2023-02-05T04:38:17;118349.16;;;-140.64;88.58
7930;BME280;4010;42.698;23.124;2023-02-05T04:40:44;118349.16;;;-140.64;88.60
7930;BME280;4010;42.698;23.124;2023-02-05T04:43:11;118349.16;;;-140.64;88.49
7930;BME280;4010;42.698;23.124;2023-02-05T04:45:37;118349.16;;;-140.64;88.79
7930;BME280;4010;42.698;23.124;2023-02-05T04:48:04;118349.16;;;-140.64;89.28
7930;BME280;4010;42.698;23.124;2023-02-05T04:50:31;118349.16;;;-140.64;88.88
7930;BME280;4010;42.698;23.124;2023-02-05T04:53:00;118349.16;;;-140.64;91.11
7930;BME280;4010;42.698;23.124;2023-02-05T04:55:27;118349.16;;;-140.64;91.64
7930;BME280;4010;42.698;23.124;2023-02-05T04:57:54;118349.16;;;-140.64;92.06
7930;BME280;4010;42.698;23.124;2023-02-05T05:00:21;118349.16;;;-140.64;91.82
7930;BME280;4010;42.698;23.124;2023-02-05T05:02:48;118349.16;;;-140.64;91.80
7930;BME280;4010;42.698;23.124;2023-02-05T05:05:14;118349.16;;;-140.64;91.59
7930;BME280;4010;42.698;23.124;2023-02-05T05:07:41;118349.16;;;-140.64;92.10
7930;BME280;4010;42.698;23.124;2023-02-05T05:10:10;118349.16;;;-140.64;92.41
7930;BME280;4010;42.698;23.124;2023-02-05T05:12:37;118349.16;;;-140.64;92.88
7930;BME280;4010;42.698;23.124;2023-02-05T05:15:05;118349.16;;;-140.64;93.24
7930;BME280;4010;42.698;23.124;2023-02-05T05:17:33;118349.16;;;-140.64;93.02
7930;BME280;4010;42.698;23.124;2023-02-05T05:20:00;118349.16;;;-140.64;93.37
7930;BME280;4010;42.698;23.124;2023-02-05T05:22:26;118349.16;;;-140.64;92.98
7930;BME280;4010;42.698;23.124;2023-02-05T05:24:53;118349.16;;;-140.64;93.19
7930;BME280;4010;42.698;23.124;2023-02-05T05:27:21;118349.16;;;-140.64;93.35
7930;BME280;4010;42.698;23.124;2023-02-05T05:29:49;118349.16;;;-140.64;92.34
7930;BME280;4010;42.698;23.124;2023-02-05T05:32:15;118349.16;;;-140.64;92.51
7930;BME280;4010;42.698;23.124;2023-02-05T05:34:42;118349.16;;;-140.64;92.43
7930;BME280;4010;42.698;23.124;2023-02-05T05:37:09;118349.16;;;-140.64;92.74
7930;BME280;4010;42.698;23.124;2023-02-05T05:39:35;118349.16;;;-140.64;92.94
7930;BME280;4010;42.698;23.124;2023-02-05T05:42:20;118349.16;;;-140.64;93.14
7930;BME280;4010;42.698;23.124;2023-02-05T05:45:06;118349.16;;;-140.64;93.10
7930;BME280;4010;42.698;23.124;2023-02-05T05:47:32;118349.16;;;-140.64;92.98
7930;BME280;4010;42.698;23.124;2023-02-05T05:49:59;118349.16;;;-140.64;93.17
7930;BME280;4010;42.698;23.124;2023-02-05T05:52:26;118349.16;;;-140.64;92.85
7930;BME280;4010;42.698;23.124;2023-02-05T05:54:52;118349.16;;;-140.64;92.63
7930;BME280;4010;42.698;23.124;2023-02-05T05:57:20;118349.16;;;-140.64;92.75
7930;BME280;4010;42.698;23.124;2023-02-05T05:59:47;118349.16;;;-140.64;93.15
7930;BME280;4010;42.698;23.124;2023-02-05T06:02:13;118349.16;;;-140.64;92.86
7930;BME280;4010;42.698;23.124;2023-02-05T06:04:40;118349.16;;;-140.64;92.76
7930;BME280;4010;42.698;23.124;2023-02-05T06:07:07;118349.16;;;-140.64;92.36
7930;BME280;4010;42.698;23.124;2023-02-05T06:09:33;118349.16;;;-140.64;92.15
7930;BME280;4010;42.698;23.124;2023-02-05T06:12:00;118349.16;;;-140.64;92.18
7930;BME280;4010;42.698;23.124;2023-02-05T06:14:28;118349.16;;;-140.64;92.00
7930;BME280;4010;42.698;23.124;2023-02-05T06:16:55;118349.16;;;-140.64;91.85
7930;BME280;4010;42.698;23.124;2023-02-05T06:19:21;118349.16;;;-140.64;91.96
7930;BME280;4010;42.698;23.124;2023-02-05T06:21:48;118349.16;;;-140.64;92.28
7930;BME280;4010;42.698;23.124;2023-02-05T06:24:15;118349.16;;;-140.64;91.19
7930;BME280;4010;42.698;23.124;2023-02-05T06:26:42;118349.16;;;-140.64;91.51
7930;BME280;4010;42.698;23.124;2023-02-05T06:29:08;118349.16;;;-140.64;91.01
7930;BME280;4010;42.698;23.124;2023-02-05T06:31:36;118349.16;;;-140.64;91.35
7930;BME280;4010;42.698;23.124;2023-02-05T06:34:03;118349.16;;;-140.64;91.26
7930;BME280;4010;42.698;23.124;2023-02-05T06:36:30;118349.16;;;-140.64;91.23
7930;BME280;4010;42.698;23.124;2023-02-05T06:38:56;118349.16;;;-140.64;91.51
7930;BME280;4010;42.698;23.124;2023-02-05T06:41:23;118349.16;;;-140.64;90.90
7930;BME280;4010;42.698;23.124;2023-02-05T06:43:50;118349.16;;;-140.64;90.72
7930;BME280;4010;42.698;23.124;2023-02-05T06:46:16;118349.16;;;-140.64;91.02
7930;BME280;4010;42.698;23.124;2023-02-05T06:48:44;118349.16;;;-140.64;91.37
7930;BME280;4010;42.698;23.124;2023-02-05T06:51:11;118349.16;;;-140.64;91.11
7930;BME280;4010;42.698;23.124;2023-02-05T06:53:38;118349.16;;;-140.64;91.63
7930;BME280;4010;42.698;23.124;2023-02-05T06:56:05;118349.16;;;-140.64;91.55
7930;BME280;4010;42.698;23.124;2023-02-05T06:58:32;118349.16;;;-140.64;91.77
7930;BME280;4010;42.698;23.124;2023-02-05T07:00:59;118349.16;;;-140.64;92.42
7930;BME280;4010;42.698;23.124;2023-02-05T07:03:25;118349.16;;;-140.64;92.43
7930;BME280;4010;42.698;23.124;2023-02-05T07:05:53;118349.16;;;-140.64;92.88
7930;BME280;4010;42.698;23.124;2023-02-05T07:08:20;118349.16;;;-140.64;93.02
7930;BME280;4010;42.698;23.124;2023-02-05T07:10:47;118349.16;;;-140.64;92.44
7930;BME280;4010;42.698;23.124;2023-02-05T07:13:13;118349.16;;;-140.64;92.63
7930;BME280;4010;42.698;23.124;2023-02-05T07:15:40;118349.16;;;-140.64;92.16
7930;BME280;4010;42.698;23.124;2023-02-05T07:18:07;118349.16;;;-140.64;91.96
7930;BME280;4010;42.698;23.124;2023-02-05T07:20:34;118349.16;;;-140.64;92.18
7930;BME280;4010;42.698;23.124;2023-02-05T07:23:02;118349.16;;;-140.64;91.69
7930;BME280;4010;42.698;23.124;2023-02-05T07:25:29;118349.16;;;-140.64;91.89
7930;BME280;4010;42.698;23.124;2023-02-05T07:28:00;118349.16;;;-140.64;91.45
7930;BME280;4010;42.698;23.124;2023-02-05T07:30:27;118349.16;;;-140.64;91.02
7930;BME280;4010;42.698;23.124;2023-02-05T07:32:53;118349.16;;;-140.64;90.65
7930;BME280;4010;42.698;23.124;2023-02-05T07:35:20;118349.16;;;-140.64;91.11
7930;BME280;4010;42.698;23.124;2023-02-05T07:37:47;118349.16;;;-140.64;90.95
7930;BME280;4010;42.698;23.124;2023-02-05T07:40:15;118349.16;;;-140.64;91.33
7930;BME280;4010;42.698;23.124;2023-02-05T07:42:42;118349.16;;;-140.64;90.56
7930;BME280;4010;42.698;23.124;2023-02-05T07:45:08;118349.16;;;-140.64;91.56
7930;BME280;4010;42.698;23.124;2023-02-05T07:47:35;118349.16;;;-140.64;91.44
7930;BME280;4010;42.698;23.124;2023-02-05T07:50:02;118349.16;;;-140.64;91.35
7930;BME280;4010;42.698;23.124;2023-02-05T07:52:30;118349.16;;;-140.64;91.11
7930;BME280;4010;42.698;23.124;2023-02-05T07:54:57;118349.16;;;-140.64;91.31
7930;BME280;4010;42.698;23.124;2023-02-05T07:57:25;118349.16;;;-140.64;91.22
7930;BME280;4010;42.698;23.124;2023-02-05T07:59:52;118349.16;;;-140.64;92.27
7930;BME280;4010;42.698;23.124;2023-02-05T08:02:19;118349.16;;;-140.64;92.42
7930;BME280;4010;42.698;23.124;2023-02-05T08:04:45;118349.16;;;-140.64;92.63
7930;BME280;4010;42.698;23.124;2023-02-05T08:07:12;118349.16;;;-140.64;92.62
7930;BME280;4010;42.698;23.124;2023-02-05T08:09:39;118349.16;;;-140.64;92.26
7930;BME280;4010;42.698;23.124;2023-02-05T08:12:06;118349.16;;;-140.64;91.97
7930;BME280;4010;42.698;23.124;2023-02-05T08:14:34;118349.16;;;-140.64;91.99
7930;BME280;4010;42.698;23.124;2023-02-05T08:17:01;118349.16;;;-140.64;92.03
7930;BME280;4010;42.698;23.124;2023-02-05T08:19:30;118349.16;;;-140.64;92.53
7930;BME280;4010;42.698;23.124;2023-02-05T08:21:56;118349.16;;;-140.64;92.04
7930;BME280;4010;42.698;23.124;2023-02-05T08:24:23;118349.16;;;-140.64;91.45
7930;BME280;4010;42.698;23.124;2023-02-05T08:26:50;118349.16;;;-140.64;91.04
7930;BME280;4010;42.698;23.124;2023-02-05T08:29:16;118349.16;;;-140.64;90.84
7930;BME280;4010;42.698;23.124;2023-02-05T08:31:44;118349.16;;;-140.64;90.91
7930;BME280;4010;42.698;23.124;2023-02-05T08:34:11;118349.16;;;-140.64;90.81
7930;BME280;4010;42.698;23.124;2023-02-05T08:36:38;118349.16;;;-140.64;89.70
7930;BME280;4010;42.698;23.124;2023-02-05T08:39:04;118349.16;;;-140.64;88.05
7930;BME280;4010;42.698;23.124;2023-02-05T08:41:31;118349.16;;;-140.64;87.27
7930;BME280;4010;42.698;23.124;2023-02-05T08:43:58;118349.16;;;-140.64;88.84
7930;BME280;4010;42.698;23.124;2023-02-05T08:46:24;118349.16;;;-140.64;87.92
7930;BME280;4010;42.698;23.124;2023-02-05T08:48:53;118349.16;;;-140.64;87.20
7930;BME280;4010;42.698;23.124;2023-02-05T08:51:20;118349.16;;;-140.64;86.51
7930;BME280;4010;42.698;23.124;2023-02-05T08:53:47;118349.16;;;-140.64;87.67
7930;BME280;4010;42.698;23.124;2023-02-05T08:56:14;118349.16;;;-140.64;87.93
7930;BME280;4010;42.698;23.124;2023-02-05T08:58:41;118349.16;;;-140.64;85.07
7930;BME280;4010;42.698;23.124;2023-02-05T09:01:09;118349.16;;;-140.64;84.68
7930;BME280;4010;42.698;23.124;2023-02-05T09:03:37;118349.16;;;-140.64;85.70
7930;BME280;4010;42.698;23.124;2023-02-05T09:06:06;118349.16;;;-140.64;86.48
7930;BME280;4010;42.698;23.124;2023-02-05T09:08:33;118349.16;;;-140.64;85.84
7930;BME280;4010;42.698;23.124;2023-02-05T09:11:01;118349.16;;;-140.64;85.59
7930;BME280;4010;42.698;23.124;2023-02-05T09:13:27;118349.16;;;-140.64;85.04
7930;BME280;4010;42.698;23.124;2023-02-05T09:15:54;118349.16;;;-140.64;84.44
7930;BME280;4010;42.698;23.124;2023-02-05T09:18:21;118349.16;;;-140.64;84.77
7930;BME280;4010;42.698;23.124;2023-02-05T09:20:49;118349.16;;;-140.64;84.43
7930;BME280;4010;42.698;23.124;2023-02-05T09:23:17;118349.16;;;-140.64;84.14
7930;BME280;4010;42.698;23.124;2023-02-05T09:25:44;118349.16;;;-140.64;84.03
7930;BME280;4010;42.698;23.124;2023-02-05T09:28:12;118349.16;;;-140.64;84.08
7930;BME280;4010;42.698;23.124;2023-02-05T09:30:41;118349.16;;;-140.64;83.72
7930;BME280;4010;42.698;23.124;2023-02-05T09:33:09;118349.16;;;-140.64;84.22
7930;BME280;4010;42.698;23.124;2023-02-05T09:35:36;118349.16;;;-140.64;83.52
7930;BME280;4010;42.698;23.124;2023-02-05T09:38:03;118349.16;;;-140.64;83.62
7930;BME280;4010;42.698;23.124;2023-02-05T09:40:36;118349.16;;;-140.64;82.44
7930;BME280;4010;42.698;23.124;2023-02-05T09:43:14;118349.16;;;-140.64;82.27
7930;BME280;4010;42.698;23.124;2023-02-05T09:45:52;118349.16;;;-140.64;82.64
7930;BME280;4010;42.698;23.124;2023-02-05T09:48:36;118349.16;;;-140.64;81.79
7930;BME280;4010;42.698;23.124;2023-02-05T09:51:06;118349.16;;;-140.64;81.83
7930;BME280;4010;42.698;23.124;2023-02-05T09:53:39;118349.16;;;-140.64;80.02
7930;BME280;4010;42.698;23.124;2023-02-05T09:56:08;118349.16;;;-140.64;79.73
7930;BME280;4010;42.698;23.124;2023-02-05T09:58:41;118349.16;;;-140.64;79.75
7930;BME280;4010;42.698;23.124;2023-02-05T10:01:13;118349.16;;;-140.64;79.75
7930;BME280;4010;42.698;23.124;2023-02-05T10:03:43;118349.16;;;-140.64;80.64
7930;BME280;4010;42.698;23.124;2023-02-05T10:06:25;118349.16;;;-140.64;80.24
7930;BME280;4010;42.698;23.124;2023-02-05T10:09:02;118349.16;;;-140.64;82.39
7930;BME280;4010;42.698;23.124;2023-02-05T10:11:41;118349.16;;;-140.64;83.86
7930;BME280;4010;42.698;23.124;2023-02-05T10:14:18;118349.16;;;-140.64;83.39
7930;BME280;4010;42.698;23.124;2023-02-05T10:17:02;118349.16;;;-140.64;83.87
7930;BME280;4010;42.698;23.124;2023-02-05T10:19:54;118349.16;;;-140.64;82.34
7930;BME280;4010;42.698;23.124;2023-02-05T10:22:26;118349.16;;;-140.64;82.90
7930;BME280;4010;42.698;23.124;2023-02-05T10:25:04;118349.16;;;-140.64;83.90
7930;BME280;4010;42.698;23.124;2023-02-05T10:27:45;118349.16;;;-140.64;86.11
7930;BME280;4010;42.698;23.124;2023-02-05T10:30:20;118349.16;;;-140.64;86.20
7930;BME280;4010;42.698;23.124;2023-02-05T10:32:55;118349.16;;;-140.64;86.00
7930;BME280;4010;42.698;23.124;2023-02-05T10:35:27;118349.16;;;-140.64;86.75
7930;BME280;4010;42.698;23.124;2023-02-05T10:37:58;118349.16;;;-140.64;87.68
7930;BME280;4010;42.698;23.124;2023-02-05T10:40:28;118349.16;;;-140.64;87.95
7930;BME280;4010;42.698;23.124;2023-02-05T10:43:01;118349.16;;;-140.64;87.69
7930;BME280;4010;42.698;23.124;2023-02-05T10:45:29;118349.16;;;-140.64;87.29
7930;BME280;4010;42.698;23.124;2023-02-05T10:48:21;118349.16;;;-140.64;85.61
7930;BME280;4010;42.698;23.124;2023-02-05T10:50:54;118349.16;;;-140.64;85.88
7930;BME280;4010;42.698;23.124;2023-02-05T10:53:24;118349.16;;;-140.64;85.94
7930;BME280;4010;42.698;23.124;2023-02-05T10:55:51;118349.16;;;-140.64;84.93
7930;BME280;4010;42.698;23.124;2023-02-05T10:58:42;118349.16;;;-140.64;85.55
7930;BME280;4010;42.698;23.124;2023-02-05T11:01:13;118349.16;;;-140.64;85.97
7930;BME280;4010;42.698;23.124;2023-02-05T11:03:56;118349.16;;;-140.64;86.12
7930;BME280;4010;42.698;23.124;2023-02-05T11:06:26;118349.16;;;-140.64;85.84
7930;BME280;4010;42.698;23.124;2023-02-05T11:08:55;118349.16;;;-140.64;85.92
7930;BME280;4010;42.698;23.124;2023-02-05T11:11:24;118349.16;;;-140.64;87.12
7930;BME280;4010;42.698;23.124;2023-02-05T11:13:55;118349.16;;;-140.64;86.78
7930;BME280;4010;42.698;23.124;2023-02-05T11:16:23;118349.16;;;-140.64;86.70
7930;BME280;4010;42.698;23.124;2023-02-05T11:19:00;118349.16;;;-140.64;85.97
7930;BME280;4010;42.698;23.124;2023-02-05T11:21:47;118349.16;;;-140.64;85.13
7930;BME280;4010;42.698;23.124;2023-02-05T11:24:23;118349.16;;;-140.64;86.56
7930;BME280;4010;42.698;23.124;2023-02-05T11:27:24;118349.16;;;-140.64;87.68
7930;BME280;4010;42.698;23.124;2023-02-05T11:29:52;118349.16;;;-140.64;88.23
7930;BME280;4010;42.698;23.124;2023-02-05T11:32:20;118349.16;;;-140.64;88.77
7930;BME280;4010;42.698;23.124;2023-02-05T11:34:48;118349.16;;;-140.64;87.48
7930;BME280;4010;42.698;23.124;2023-02-05T11:37:16;118349.16;;;-140.64;87.19
7930;BME280;4010;42.698;23.124;2023-02-05T11:39:44;118349.16;;;-140.64;87.64
7930;BME280;4010;42.698;23.124;2023-02-05T11:42:19;118349.16;;;-140.64;86.03
7930;BME280;4010;42.698;23.124;2023-02-05T11:44:49;118349.16;;;-140.64;85.11
7930;BME280;4010;42.698;23.124;2023-02-05T11:47:24;118349.16;;;-140.64;85.68
7930;BME280;4010;42.698;23.124;2023-02-05T11:49:52;118349.16;;;-140.64;85.23
7930;BME280;4010;42.698;23.124;2023-02-05T11:52:25;118349.16;;;-140.64;84.08
7930;BME280;4010;42.698;23.124;2023-02-05T11:54:53;118349.16;;;-140.64;84.27
7930;BME280;4010;42.698;23.124;2023-02-05T11:57:29;118349.16;;;-140.64;82.39
7930;BME280;4010;42.698;23.124;2023-02-05T11:59:58;118349.16;;;-140.64;82.52
7930;BME280;4010;42.698;23.124;2023-02-05T12:02:32;118349.16;;;-140.64;81.90
7930;BME280;4010;42.698;23.124;2023-02-05T12:05:05;118349.16;;;-140.64;81.09
7930;BME280;4010;42.698;23.124;2023-02-05T12:07:37;118349.16;;;-140.64;81.17
7930;BME280;4010;42.698;23.124;2023-02-05T12:10:13;118349.16;;;-140.64;80.44
7930;BME280;4010;42.698;23.124;2023-02-05T12:12:46;118349.16;;;-140.64;81.56
7930;BME280;4010;42.698;23.124;2023-02-05T12:15:20;118349.16;;;-140.64;80.64
7930;BME280;4010;42.698;23.124;2023-02-05T12:17:57;118349.16;;;-140.64;79.67
7930;BME280;4010;42.698;23.124;2023-02-05T12:20:31;118349.16;;;-140.64;79.49
7930;BME280;4010;42.698;23.124;2023-02-05T12:23:16;118349.16;;;-140.64;79.66
7930;BME280;4010;42.698;23.124;2023-02-05T12:25:53;118349.16;;;-140.64;79.66
7930;BME280;4010;42.698;23.124;2023-02-05T12:28:33;118349.16;;;-140.64;80.50
7930;BME280;4010;42.698;23.124;2023-02-05T12:31:11;118349.16;;;-140.64;80.85
7930;BME280;4010;42.698;23.124;2023-02-05T12:34:14;118349.16;;;-140.64;81.12
7930;BME280;4010;42.698;23.124;2023-02-05T12:37:00;118349.16;;;-140.64;81.67
7930;BME280;4010;42.698;23.124;2023-02-05T12:39:37;118349.16;;;-140.64;83.15
7930;BME280;4010;42.698;23.124;2023-02-05T12:42:17;118349.16;;;-140.64;83.04
7930;BME280;4010;42.698;23.124;2023-02-05T12:44:56;118349.16;;;-140.64;83.01
7930;BME280;4010;42.698;23.124;2023-02-05T12:47:42;118349.16;;;-140.64;83.51
7930;BME280;4010;42.698;23.124;2023-02-05T12:50:31;118349.16;;;-140.64;83.77
7930;BME280;4010;42.698;23.124;2023-02-05T12:53:11;118349.16;;;-140.64;84.45
7930;BME280;4010;42.698;23.124;2023-02-05T12:55:49;118349.16;;;-140.64;83.99
7930;BME280;4010;42.698;23.124;2023-02-05T12:58:19;118349.16;;;-140.64;84.21